Terminal Aerodrome Forecast
Issued by NWS Wilmington, OH

Current Version | Previous Version | Text Only | Print | Product List | Glossary Off
Versions: 1 2 3 4 5 6 7 8 9 10 11 12 13

000
FTUS41 KILN 181100
TAFCMH
TAF
KCMH 181120Z 1812/1912 17005KT P6SM FEW070 BKN150
     FM181600 22006KT P6SM SCT070 OVC150
     FM182000 28008KT P6SM BKN060
     FM190000 34005KT P6SM BKN060
     FM190600 02007KT P6SM SKC=

USA.gov is the U.S. government's official web portal to all federal, state and local government web resources and services.